Terminal Aerodrome Forecast
Issued by NWS

Home | Current Version | Previous Version | Text Only | Print | Product List | Glossary On
Versions: 1 2 3 4 5 6 7 8 9 10 11 12 13 14 15 16 17 18 19 20 21 22 23 24 25 26 27 28 29 30 31 32 33 34 35 36 37 38 39
000
FTUS45 KBOU 261501 AAB
TAFAPA
TAF AMD
KAPA 261501Z 2615/2712 02006KT 1/2SM SN FZFG OVC010
     FM261600 03006KT 3SM -SN BR SCT025 OVC040
      TEMPO 2616/2618 1SM -SN BR SCT010 OVC020
     FM262000 03007KT 5SM -SN BR SCT015 OVC025
      TEMPO 2620/2623 3SM -SN BR OVC015
     FM270100 01006KT P6SM VCSH SCT015 BKN030 OVC060
     FM270700 24006KT P6SM SCT025 BKN040 BKN080=

USA.gov is the U.S. government's official web portal to all federal, state and local government web resources and services.